createdAt,value
2022-11-21T00:00:09.377Z,50.88
2022-11-21T00:02:36.857Z,51.16
2022-11-21T00:05:04.195Z,51.80
2022-11-21T00:07:31.492Z,51.50
2022-11-21T00:09:58.976Z,50.84
2022-11-21T00:12:26.164Z,50.11
2022-11-21T00:14:53.406Z,50.65
2022-11-21T00:17:20.881Z,49.95
2022-11-21T00:19:48.090Z,50.69
2022-11-21T00:22:15.358Z,49.92
2022-11-21T00:24:42.862Z,50.88
2022-11-21T00:27:10.062Z,49.84
2022-11-21T00:29:37.319Z,49.63
2022-11-21T00:32:04.968Z,50.36
2022-11-21T00:34:32.158Z,50.89
2022-11-21T00:36:59.316Z,51.85
2022-11-21T00:39:26.845Z,49.88
2022-11-21T00:41:54.050Z,49.96
2022-11-21T00:44:21.313Z,49.83
2022-11-21T00:46:48.808Z,50.27
2022-11-21T00:49:16.030Z,50.04
2022-11-21T00:51:43.242Z,49.55
2022-11-21T00:54:10.742Z,50.03
2022-11-21T00:56:37.975Z,50.15
2022-11-21T00:59:05.143Z,51.05
2022-11-21T01:01:32.700Z,50.72
2022-11-21T01:04:00.016Z,50.39
2022-11-21T01:06:27.236Z,50.17
2022-11-21T01:08:54.739Z,50.58
2022-11-21T01:11:22.030Z,50.91
2022-11-21T01:13:49.284Z,50.74
2022-11-21T01:16:20.742Z,51.36
2022-11-21T01:18:48.165Z,51.71
2022-11-21T01:21:16.357Z,51.41
2022-11-21T01:23:44.102Z,51.38
2022-11-21T01:26:12.084Z,51.26
2022-11-21T01:28:39.289Z,52.32
2022-11-21T01:31:11.176Z,52.60
2022-11-21T01:33:38.716Z,50.74
2022-11-21T01:36:08.299Z,50.01
2022-11-21T01:38:35.776Z,49.65
2022-11-21T01:41:03.154Z,49.48
2022-11-21T01:43:30.350Z,51.03
2022-11-21T01:46:01.905Z,50.77
2022-11-21T01:48:32.067Z,50.56
2022-11-21T01:51:00.615Z,50.54
2022-11-21T01:53:27.831Z,49.62
2022-11-21T01:55:55.033Z,49.85
2022-11-21T01:58:22.578Z,50.05
2022-11-21T02:00:49.903Z,49.72
2022-11-21T02:03:18.405Z,49.63
2022-11-21T02:05:45.857Z,49.45
2022-11-21T02:08:18.205Z,50.00
2022-11-21T02:10:48.064Z,49.33
2022-11-21T02:13:15.266Z,49.67
2022-11-21T02:15:42.444Z,49.74
2022-11-21T02:18:10.047Z,49.73
2022-11-21T02:20:37.231Z,50.13
2022-11-21T02:23:06.424Z,50.45
2022-11-21T02:25:34.359Z,50.32
2022-11-21T02:28:02.218Z,49.70
2022-11-21T02:30:33.597Z,49.60
2022-11-21T02:33:01.104Z,50.00
2022-11-21T02:35:28.335Z,51.18
2022-11-21T02:37:59.688Z,51.09
2022-11-21T02:40:28.305Z,51.02
2022-11-21T02:42:55.478Z,52.04
2022-11-21T02:45:24.007Z,51.87
2022-11-21T02:47:52.770Z,51.77
2022-11-21T02:50:20.640Z,51.68
2022-11-21T02:52:47.857Z,51.35
2022-11-21T02:55:16.034Z,51.29
2022-11-21T02:57:43.382Z,50.50
2022-11-21T03:00:11.271Z,49.97
2022-11-21T03:02:38.789Z,49.41
2022-11-21T03:05:08.328Z,49.90
2022-11-21T03:07:35.639Z,50.63
2022-11-21T03:10:03.571Z,49.65
2022-11-21T03:12:30.745Z,49.23
2022-11-21T03:14:57.936Z,49.09
2022-11-21T03:17:25.363Z,50.14
2022-11-21T03:19:52.548Z,49.67
2022-11-21T03:22:19.751Z,49.44
2022-11-21T03:24:47.157Z,49.55
2022-11-21T03:27:14.359Z,49.33
2022-11-21T03:29:41.586Z,49.34
2022-11-21T03:32:09.045Z,49.65
2022-11-21T03:34:36.377Z,48.95
2022-11-21T03:37:03.611Z,48.89
2022-11-21T03:39:31.087Z,48.82
2022-11-21T03:41:58.256Z,48.61
2022-11-21T03:44:25.975Z,49.56
2022-11-21T03:46:53.739Z,49.44
2022-11-21T03:49:20.943Z,48.95
2022-11-21T03:51:48.104Z,48.83
2022-11-21T03:54:15.572Z,48.97
2022-11-21T03:56:42.810Z,50.01
2022-11-21T03:59:10.008Z,50.35
2022-11-21T04:01:37.581Z,50.52
2022-11-21T04:04:05.279Z,50.42
2022-11-21T04:06:32.522Z,50.14
2022-11-21T04:08:59.712Z,49.55
2022-11-21T04:11:27.232Z,49.59
2022-11-21T04:13:54.402Z,49.78
2022-11-21T04:16:21.639Z,49.68
2022-11-21T04:18:49.173Z,49.43
2022-11-21T04:21:16.353Z,50.03
2022-11-21T04:23:43.558Z,50.88
2022-11-21T04:26:11.196Z,50.91
2022-11-21T04:28:38.441Z,50.96
2022-11-21T04:31:10.389Z,50.54
2022-11-21T04:33:39.005Z,50.44
2022-11-21T04:36:06.971Z,50.92
2022-11-21T04:38:34.167Z,50.51
2022-11-21T04:41:01.657Z,50.01
2022-11-21T04:43:28.893Z,49.97
2022-11-21T04:45:56.105Z,49.82
2022-11-21T04:48:24.763Z,49.56
2022-11-21T04:50:51.990Z,49.72
2022-11-21T04:53:19.199Z,49.61
2022-11-21T04:55:46.707Z,50.29
2022-11-21T04:58:13.915Z,50.49
2022-11-21T05:00:41.098Z,50.17
2022-11-21T05:03:08.543Z,49.90
2022-11-21T05:05:35.795Z,51.04
2022-11-21T05:08:03.023Z,51.38
2022-11-21T05:10:30.537Z,51.06
2022-11-21T05:13:17.379Z,50.68
2022-11-21T05:15:44.989Z,50.90
2022-11-21T05:18:12.283Z,53.26
2022-11-21T05:20:39.479Z,53.07
2022-11-21T05:23:06.950Z,52.35
2022-11-21T05:25:34.097Z,52.58
2022-11-21T05:28:01.351Z,52.66
2022-11-21T05:30:29.188Z,53.89
2022-11-21T05:32:56.347Z,53.10
2022-11-21T05:35:23.571Z,52.35
2022-11-21T05:37:55.727Z,52.60
2022-11-21T05:40:22.994Z,53.40
2022-11-21T05:43:09.223Z,53.63
2022-11-21T05:45:36.454Z,54.00
2022-11-21T05:48:07.882Z,54.14
2022-11-21T05:50:37.948Z,52.97
2022-11-21T05:53:05.594Z,54.34
2022-11-21T05:55:34.175Z,53.36
2022-11-21T05:58:01.540Z,54.14
2022-11-21T06:00:29.138Z,53.47
2022-11-21T06:03:15.520Z,53.08
2022-11-21T06:05:42.825Z,55.45
2022-11-21T06:08:10.340Z,53.96
2022-11-21T06:10:37.586Z,54.09
2022-11-21T06:13:21.981Z,54.20
2022-11-21T06:15:49.701Z,53.88
2022-11-21T06:18:17.182Z,53.42
2022-11-21T06:20:44.404Z,53.70
2022-11-21T06:23:12.435Z,55.50
2022-11-21T06:25:39.716Z,55.53
2022-11-21T06:28:06.881Z,55.02
2022-11-21T06:30:34.537Z,55.25
2022-11-21T06:33:03.434Z,54.19
2022-11-21T06:35:30.727Z,53.69
2022-11-21T06:37:58.571Z,54.75
2022-11-21T06:40:25.823Z,55.31
2022-11-21T06:42:53.041Z,54.04
2022-11-21T06:45:20.490Z,53.97
2022-11-21T06:47:48.470Z,54.44
2022-11-21T06:50:15.881Z,53.17
2022-11-21T06:52:43.388Z,54.46
2022-11-21T06:55:10.780Z,53.80
2022-11-21T06:57:38.060Z,54.43
2022-11-21T07:00:06.016Z,53.89
2022-11-21T07:02:33.258Z,54.60
2022-11-21T07:05:00.387Z,55.42
2022-11-21T07:07:28.015Z,54.99
2022-11-21T07:09:55.258Z,54.31
2022-11-21T07:12:40.918Z,53.93
2022-11-21T07:15:08.845Z,54.51
2022-11-21T07:17:36.061Z,54.41
2022-11-21T07:20:03.395Z,54.58
2022-11-21T07:22:30.885Z,53.98
2022-11-21T07:24:58.106Z,53.18
2022-11-21T07:27:25.273Z,53.38
2022-11-21T07:29:52.746Z,53.69
2022-11-21T07:32:20.008Z,54.36
2022-11-21T07:34:47.205Z,54.20
2022-11-21T07:37:14.685Z,54.65
2022-11-21T07:39:42.005Z,55.10
2022-11-21T07:42:09.291Z,55.17
2022-11-21T07:44:36.833Z,56.31
2022-11-21T07:47:04.066Z,55.74
2022-11-21T07:49:31.481Z,54.73
2022-11-21T07:51:59.126Z,54.42
2022-11-21T07:54:26.367Z,54.16
2022-11-21T07:56:53.584Z,54.46
2022-11-21T07:59:21.139Z,54.65
2022-11-21T08:01:48.423Z,54.32
2022-11-21T08:04:15.903Z,54.09
2022-11-21T08:06:43.191Z,54.26
2022-11-21T08:09:10.378Z,54.06
2022-11-21T08:11:37.915Z,54.53
2022-11-21T08:14:05.126Z,54.60
2022-11-21T08:16:32.999Z,55.20
2022-11-21T08:19:00.626Z,55.25
2022-11-21T08:21:27.828Z,54.14
2022-11-21T08:23:55.353Z,54.92
2022-11-21T08:26:22.929Z,55.48
2022-11-21T08:28:51.587Z,55.66
2022-11-21T08:31:21.592Z,55.40
2022-11-21T08:33:49.169Z,55.81
2022-11-21T08:36:16.386Z,56.29
2022-11-21T08:38:43.556Z,55.39
2022-11-21T08:41:30.270Z,55.11
2022-11-21T08:43:57.492Z,55.09
2022-11-21T08:46:28.273Z,55.17
2022-11-21T08:48:55.539Z,56.45
2022-11-21T08:51:22.819Z,55.31
2022-11-21T08:53:50.574Z,54.64
2022-11-21T08:56:17.746Z,56.91
2022-11-21T08:58:45.012Z,56.10
2022-11-21T09:01:12.471Z,56.00
2022-11-21T09:03:39.767Z,55.45
2022-11-21T09:06:07.098Z,55.81
2022-11-21T09:08:35.491Z,56.23
2022-11-21T09:11:06.405Z,54.47
2022-11-21T09:13:33.906Z,55.72
2022-11-21T09:16:20.853Z,55.62
2022-11-21T09:18:48.390Z,55.53
2022-11-21T09:21:16.143Z,54.14
2022-11-21T09:23:43.376Z,55.54
2022-11-21T09:26:10.627Z,54.81
2022-11-21T09:28:38.130Z,56.89
2022-11-21T09:31:05.553Z,55.35
2022-11-21T09:33:32.945Z,55.26
2022-11-21T09:36:00.638Z,56.29
2022-11-21T09:38:28.985Z,57.17
2022-11-21T09:41:22.255Z,57.20
2022-11-21T09:44:00.872Z,57.96
2022-11-21T09:46:28.694Z,58.31
2022-11-21T09:49:00.672Z,59.02
2022-11-21T09:51:27.950Z,58.68
2022-11-21T09:54:28.608Z,59.52
2022-11-21T09:56:55.988Z,60.99
2022-11-21T09:59:33.819Z,61.41
2022-11-21T10:02:01.204Z,61.26
2022-11-21T10:04:29.138Z,60.13
2022-11-21T10:06:56.532Z,59.72
2022-11-21T10:09:26.717Z,60.54
2022-11-21T10:12:16.024Z,59.07
2022-11-21T10:15:01.831Z,58.45
2022-11-21T10:17:32.055Z,57.86
2022-11-21T10:20:08.526Z,56.67
2022-11-21T10:22:46.894Z,58.37
2022-11-21T10:25:26.850Z,57.92
2022-11-21T10:28:07.323Z,57.40
2022-11-21T10:30:35.020Z,57.75
2022-11-21T10:33:03.592Z,56.87
2022-11-21T10:35:35.956Z,56.11
2022-11-21T10:38:06.049Z,55.76
2022-11-21T10:40:44.435Z,55.82
2022-11-21T10:43:33.729Z,55.78
2022-11-21T10:46:00.920Z,55.82
2022-11-21T10:48:28.377Z,55.08
2022-11-21T10:51:06.240Z,54.32
2022-11-21T10:53:52.523Z,54.65
2022-11-21T10:56:20.634Z,54.43
2022-11-21T10:58:52.074Z,54.09
2022-11-21T11:01:28.339Z,54.28
2022-11-21T11:04:39.158Z,53.05
2022-11-21T11:07:34.243Z,53.62
2022-11-21T11:10:34.351Z,53.45
2022-11-21T11:16:10.852Z,53.94
2022-11-21T11:18:39.488Z,53.67
2022-11-21T11:21:11.825Z,53.44
2022-11-21T11:23:39.431Z,53.54
2022-11-21T11:26:18.173Z,54.22
2022-11-21T11:28:45.626Z,54.14
2022-11-21T11:31:12.871Z,54.07
2022-11-21T11:33:41.170Z,53.54
2022-11-21T11:36:11.451Z,53.54
2022-11-21T11:38:38.699Z,52.85
2022-11-21T11:41:09.155Z,52.98
2022-11-21T11:43:55.488Z,53.10
2022-11-21T11:46:59.731Z,52.66
2022-11-21T11:49:58.288Z,51.99
2022-11-21T11:52:26.076Z,52.14
2022-11-21T11:54:56.127Z,53.10
2022-11-21T11:57:23.363Z,52.84
2022-11-21T11:59:51.728Z,53.41
2022-11-21T12:02:23.937Z,53.40
2022-11-21T12:04:55.750Z,53.54
2022-11-21T12:08:20.412Z,52.60
2022-11-21T12:10:17.240Z,52.26
2022-11-21T12:12:59.492Z,51.60
2022-11-21T12:15:52.668Z,51.90
2022-11-21T12:18:19.925Z,51.66
2022-11-21T12:20:50.233Z,52.22
2022-11-21T12:23:18.136Z,52.31
2022-11-21T12:25:59.200Z,52.85
2022-11-21T12:28:28.462Z,52.84
2022-11-21T12:30:57.650Z,55.51
2022-11-21T12:33:24.912Z,56.42
2022-11-21T12:36:19.008Z,55.96
2022-11-21T12:38:47.013Z,54.61
2022-11-21T12:41:36.393Z,54.27
2022-11-21T12:44:22.511Z,54.48
2022-11-21T12:47:10.267Z,53.97
2022-11-21T12:50:02.009Z,55.82
2022-11-21T12:52:52.326Z,56.19
2022-11-21T12:55:36.316Z,54.81
2022-11-21T12:58:05.408Z,53.63
2022-11-21T13:00:32.577Z,54.13
2022-11-21T13:03:18.802Z,54.47
2022-11-21T13:05:47.190Z,54.12
2022-11-21T13:08:25.361Z,55.91
2022-11-21T13:11:15.891Z,58.45
2022-11-21T13:13:43.223Z,57.88
2022-11-21T13:16:11.624Z,59.70
2022-11-21T13:18:42.670Z,58.24
2022-11-21T13:21:28.700Z,55.71
2022-11-21T13:23:56.165Z,54.79
2022-11-21T13:26:26.374Z,53.42
2022-11-21T13:29:10.113Z,52.13
2022-11-21T13:31:37.690Z,51.86
2022-11-21T13:34:05.348Z,51.40
2022-11-21T13:36:32.596Z,52.88
2022-11-21T13:39:00.222Z,55.31
2022-11-21T13:41:55.446Z,54.43
2022-11-21T13:44:32.264Z,52.38
2022-11-21T13:47:12.443Z,53.15
2022-11-21T13:49:49.177Z,54.51
2022-11-21T13:52:19.755Z,52.92
2022-11-21T13:55:01.267Z,52.03
2022-11-21T13:57:28.596Z,52.42
2022-11-21T14:00:19.706Z,52.00
2022-11-21T14:02:48.179Z,51.27
2022-11-21T14:05:15.484Z,51.68
2022-11-21T14:07:42.955Z,51.09
2022-11-21T14:10:18.413Z,51.74
2022-11-21T14:12:47.380Z,51.69
2022-11-21T14:15:35.143Z,50.82
2022-11-21T14:18:02.386Z,50.55
2022-11-21T14:20:29.852Z,49.78
2022-11-21T14:22:57.177Z,49.89
2022-11-21T14:25:44.619Z,50.23
2022-11-21T14:28:13.186Z,49.99
2022-11-21T14:30:41.242Z,50.47
2022-11-21T14:33:20.642Z,49.97
2022-11-21T14:36:08.444Z,50.37
2022-11-21T14:38:40.221Z,50.83
2022-11-21T14:41:25.922Z,51.01
2022-11-21T14:43:59.276Z,51.10
2022-11-21T14:46:27.879Z,51.11
2022-11-21T14:48:57.330Z,49.77
2022-11-21T14:51:24.744Z,50.28
2022-11-21T14:53:53.597Z,50.90
2022-11-21T14:56:25.002Z,50.81
2022-11-21T14:58:53.071Z,50.03
2022-11-21T15:01:20.285Z,50.67
2022-11-21T15:04:17.132Z,50.42
2022-11-21T15:06:44.795Z,49.82
2022-11-21T15:10:25.491Z,50.01
2022-11-21T15:12:03.899Z,50.91
2022-11-21T15:14:35.902Z,50.56
2022-11-21T15:17:04.206Z,50.52
2022-11-21T15:19:32.652Z,50.27
2022-11-21T15:22:01.328Z,50.58
2022-11-21T15:24:37.583Z,50.19
2022-11-21T15:27:43.431Z,50.65
2022-11-21T15:30:10.925Z,50.44
2022-11-21T15:32:56.711Z,50.23
2022-11-21T15:35:47.651Z,50.60
2022-11-21T15:38:15.892Z,51.24
2022-11-21T15:40:55.424Z,50.43
2022-11-21T15:43:32.812Z,50.28
2022-11-21T15:46:01.498Z,50.11
2022-11-21T15:48:28.796Z,49.72
2022-11-21T15:50:58.966Z,48.93
2022-11-21T15:53:26.750Z,49.03
2022-11-21T15:55:54.005Z,49.17
2022-11-21T15:58:21.232Z,49.15
2022-11-21T16:00:49.395Z,48.65
2022-11-21T16:03:16.925Z,49.34
2022-11-21T16:05:44.153Z,51.36
2022-11-21T16:08:11.494Z,50.06
2022-11-21T16:10:39.193Z,50.51
2022-11-21T16:13:06.622Z,50.04
2022-11-21T16:15:34.435Z,49.67
2022-11-21T16:18:01.929Z,48.98
2022-11-21T16:20:29.237Z,49.25
2022-11-21T16:22:56.435Z,50.14
2022-11-21T16:25:23.922Z,49.41
2022-11-21T16:27:51.260Z,48.91
2022-11-21T16:30:19.320Z,47.88
2022-11-21T16:32:47.095Z,47.86
2022-11-21T16:35:14.530Z,48.31
2022-11-21T16:37:41.968Z,47.98
2022-11-21T16:40:09.762Z,47.78
2022-11-21T16:42:36.996Z,47.78
2022-11-21T16:45:04.461Z,47.73
2022-11-21T16:47:32.054Z,47.98
2022-11-21T16:50:00.391Z,47.20
2022-11-21T16:52:27.637Z,46.99
2022-11-21T16:54:55.265Z,47.28
2022-11-21T16:57:22.538Z,47.22
2022-11-21T16:59:50.101Z,47.00
2022-11-21T17:02:17.753Z,46.71
2022-11-21T17:04:45.040Z,46.88
2022-11-21T17:07:12.339Z,47.41
2022-11-21T17:09:39.905Z,48.88
2022-11-21T17:12:07.220Z,47.99
2022-11-21T17:14:34.539Z,49.12
2022-11-21T17:17:02.092Z,48.59
2022-11-21T17:19:29.604Z,48.05
2022-11-21T17:21:56.931Z,47.83
2022-11-21T17:24:25.264Z,47.63
2022-11-21T17:26:52.521Z,48.63
2022-11-21T17:29:19.893Z,48.98
2022-11-21T17:31:49.508Z,48.70
2022-11-21T17:34:16.735Z,48.21
2022-11-21T17:36:44.091Z,48.11
2022-11-21T17:39:12.840Z,47.83
2022-11-21T17:41:40.312Z,47.54
2022-11-21T17:44:07.513Z,47.87
2022-11-21T17:46:35.013Z,48.89
2022-11-21T17:49:02.354Z,48.61
2022-11-21T17:51:32.276Z,47.63
2022-11-21T17:54:00.846Z,47.44
2022-11-21T17:56:29.085Z,47.77
2022-11-21T17:58:56.494Z,48.33
2022-11-21T18:01:24.459Z,47.99
2022-11-21T18:03:56.641Z,47.49
2022-11-21T18:06:24.099Z,47.50
2022-11-21T18:08:51.845Z,47.70
2022-11-21T18:11:19.845Z,46.99
2022-11-21T18:13:48.077Z,46.93
2022-11-21T18:16:17.579Z,46.88
2022-11-21T18:18:45.434Z,46.97
2022-11-21T18:21:13.921Z,47.15
2022-11-21T18:23:41.594Z,47.06
2022-11-21T18:26:12.641Z,46.82
2022-11-21T18:28:40.222Z,46.60
2022-11-21T18:31:08.851Z,47.08
2022-11-21T18:33:36.454Z,47.74
2022-11-21T18:36:04.226Z,47.30
2022-11-21T18:38:48.231Z,47.66
2022-11-21T18:41:17.911Z,46.98
2022-11-21T18:43:49.125Z,46.98
2022-11-21T18:46:16.626Z,48.56
2022-11-21T18:49:02.157Z,47.58
2022-11-21T18:51:32.300Z,46.68
2022-11-21T18:54:05.353Z,46.96
2022-11-21T18:56:33.294Z,47.13
2022-11-21T18:59:00.829Z,46.80
2022-11-21T19:01:28.930Z,46.19
2022-11-21T19:03:57.322Z,47.93
2022-11-21T19:06:24.965Z,46.60
2022-11-21T19:08:55.678Z,46.95
2022-11-21T19:11:24.614Z,47.33
2022-11-21T19:13:52.696Z,47.52
2022-11-21T19:16:20.894Z,46.92
2022-11-21T19:19:11.513Z,46.62
2022-11-21T19:21:37.817Z,46.36
2022-11-21T19:24:06.947Z,46.44
2022-11-21T19:26:34.398Z,46.44
2022-11-21T19:29:01.822Z,46.69
2022-11-21T19:31:29.581Z,47.01
2022-11-21T19:33:57.836Z,46.80
2022-11-21T19:36:25.371Z,46.20
2022-11-21T19:38:52.931Z,46.31
2022-11-21T19:41:21.338Z,47.45
2022-11-21T19:43:49.417Z,47.79
2022-11-21T19:46:21.234Z,46.99
2022-11-21T19:48:48.952Z,47.17
2022-11-21T19:51:17.642Z,48.21
2022-11-21T19:53:45.508Z,48.73
2022-11-21T19:56:17.578Z,49.08
2022-11-21T19:58:45.688Z,47.95
2022-11-21T20:01:17.113Z,47.92
2022-11-21T20:03:45.418Z,48.65
2022-11-21T20:06:16.823Z,48.63
2022-11-21T20:08:44.500Z,48.87
2022-11-21T20:11:12.698Z,50.81
2022-11-21T20:13:40.668Z,51.30
2022-11-21T20:16:10.177Z,50.00
2022-11-21T20:18:37.652Z,51.08
2022-11-21T20:21:11.146Z,50.01
2022-11-21T20:23:39.102Z,50.80
2022-11-21T20:26:06.985Z,50.00
2022-11-21T20:28:36.228Z,50.49
2022-11-21T20:31:04.800Z,50.13
2022-11-21T20:36:21.839Z,51.30
2022-11-21T20:38:52.518Z,51.48
2022-11-21T20:41:20.057Z,50.67
2022-11-21T20:46:35.206Z,50.81
2022-11-21T20:49:02.798Z,50.91
2022-11-21T20:54:17.847Z,52.84
2022-11-21T20:56:45.175Z,52.41
2022-11-21T20:59:12.757Z,51.09
2022-11-21T21:01:40.416Z,50.49
2022-11-21T21:04:09.365Z,50.59
2022-11-21T21:06:37.720Z,50.84
2022-11-21T21:09:05.287Z,52.14
2022-11-21T21:14:21.189Z,51.36
2022-11-21T21:16:48.605Z,50.60
2022-11-21T21:19:16.292Z,50.68
2022-11-21T21:21:43.890Z,50.58
2022-11-21T21:24:11.486Z,51.21
2022-11-21T21:26:42.706Z,52.56
2022-11-21T21:29:11.842Z,52.04
2022-11-21T21:31:39.161Z,52.16
2022-11-21T21:34:06.467Z,52.64
2022-11-21T21:36:34.153Z,51.67
2022-11-21T21:39:01.618Z,52.32
2022-11-21T21:41:29.738Z,52.11
2022-11-21T21:43:57.771Z,51.94
2022-11-21T21:46:26.002Z,52.27
2022-11-21T21:48:57.247Z,52.29
2022-11-21T21:51:25.779Z,51.82
2022-11-21T21:53:53.477Z,51.89
2022-11-21T21:56:21.042Z,52.92
2022-11-21T21:58:48.920Z,53.18
2022-11-21T22:01:17.446Z,52.63
2022-11-21T22:03:45.348Z,52.82
2022-11-21T22:06:13.778Z,52.96
2022-11-21T22:08:41.156Z,52.91
2022-11-21T22:11:09.637Z,53.30
2022-11-21T22:13:37.122Z,53.35
2022-11-21T22:16:05.062Z,53.77
2022-11-21T22:18:32.829Z,53.01
2022-11-21T22:21:00.177Z,53.03
2022-11-21T22:23:27.498Z,53.38
2022-11-21T22:25:55.755Z,53.41
2022-11-21T22:28:23.467Z,53.41
2022-11-21T22:30:54.578Z,53.36
2022-11-21T22:33:22.410Z,53.71
2022-11-21T22:35:49.846Z,54.04
2022-11-21T22:38:17.172Z,53.30
2022-11-21T22:40:44.852Z,54.47
2022-11-21T22:43:12.382Z,53.79
2022-11-21T22:45:39.665Z,54.79
2022-11-21T22:48:07.364Z,55.05
2022-11-21T22:50:34.655Z,54.87
2022-11-21T22:53:01.861Z,54.79
2022-11-21T22:55:29.301Z,54.42
2022-11-21T22:57:57.343Z,54.23
2022-11-21T23:00:24.502Z,56.27
2022-11-21T23:02:52.054Z,55.25
2022-11-21T23:05:20.079Z,55.73
2022-11-21T23:07:47.391Z,55.56
2022-11-21T23:10:14.925Z,55.33
2022-11-21T23:12:42.139Z,56.81
2022-11-21T23:15:09.599Z,55.90
2022-11-21T23:17:37.433Z,55.42
2022-11-21T23:20:04.803Z,55.79
2022-11-21T23:22:32.007Z,57.08
2022-11-21T23:24:59.561Z,55.65
2022-11-21T23:27:26.820Z,56.82
2022-11-21T23:29:54.064Z,56.56
2022-11-21T23:32:21.643Z,56.37
2022-11-21T23:34:48.818Z,56.97
2022-11-21T23:37:16.065Z,56.84
2022-11-21T23:39:43.523Z,56.29
2022-11-21T23:42:10.776Z,56.00
2022-11-21T23:44:38.003Z,55.79
2022-11-21T23:47:05.525Z,55.11
2022-11-21T23:49:32.871Z,56.03
2022-11-21T23:52:00.119Z,56.98
2022-11-21T23:54:27.665Z,55.46
2022-11-21T23:56:54.885Z,55.92
2022-11-21T23:59:22.107Z,56.19
